Time;durP1;ratioP1;P1;durP2;ratioP2;P2;SDS_P1;SDS_P2;PMS_P1;PMS_P2;Temp;Humidity;BMP_temperature;BMP_pressure;BME280_temperature;BME280_humidity;BME280_pressure;Samples;Min_cycle;Max_cycle;Signal;HPM_P1;HPM_P2
2022/09/20 00:01:32;;;;;;;2.13;1.27;;;8.10;99.90;;;;;;4930137;29;20200;-70
2022/09/20 00:04:05;;;;;;;2.95;1.80;;;8.10;99.90;;;;;;4943239;29;20212;-71
2022/09/20 00:06:35;;;;;;;2.63;1.77;;;8.20;99.90;;;;;;4939428;29;20297;-70
2022/09/20 00:09:04;;;;;;;2.58;1.65;;;8.20;99.90;;;;;;4932606;29;20228;-70
2022/09/20 00:11:34;;;;;;;2.95;1.65;;;8.10;99.90;;;;;;4936641;29;20197;-70
2022/09/20 00:14:07;;;;;;;2.42;2.13;;;8.10;99.90;;;;;;4921773;29;20243;-70
2022/09/20 00:16:37;;;;;;;5.18;1.90;;;8.10;99.90;;;;;;4920010;29;20211;-69
2022/09/20 00:19:08;;;;;;;2.67;2.00;;;8.10;99.90;;;;;;4931309;29;20200;-70
2022/09/20 00:21:37;;;;;;;2.80;2.22;;;8.10;99.90;;;;;;4938242;29;20192;-70
2022/09/20 00:24:05;;;;;;;3.35;1.58;;;8.10;99.90;;;;;;4917651;29;20284;-69
2022/09/20 00:26:34;;;;;;;2.22;1.67;;;8.00;99.90;;;;;;4949601;29;20196;-70
2022/09/20 00:29:03;;;;;;;2.05;1.85;;;8.00;99.90;;;;;;4938813;29;20680;-70
2022/09/20 00:31:31;;;;;;;2.40;2.10;;;7.90;99.90;;;;;;4936278;29;20197;-71
2022/09/20 00:36:52;;;;;;;2.15;1.63;;;7.80;99.90;;;;;;4902919;29;20559;-71
2022/09/20 00:39:21;;;;;;;1.75;1.42;;;7.80;99.90;;;;;;4934281;29;20676;-70
2022/09/20 00:41:49;;;;;;;2.28;1.58;;;7.80;99.90;;;;;;4935542;29;20203;-71
2022/09/20 00:44:41;;;;;;;7.80;1.60;;;7.70;99.90;;;;;;4930158;29;20232;-70
2022/09/20 00:47:16;;;;;;;4.03;1.85;;;7.70;99.90;;;;;;4932176;29;20715;-70
2022/09/20 00:49:45;;;;;;;1.73;1.63;;;7.80;99.90;;;;;;4931825;29;20770;-69
2022/09/20 00:52:16;;;;;;;1.75;1.60;;;7.80;99.90;;;;;;4932855;29;20249;-69
2022/09/20 00:54:45;;;;;;;2.58;1.63;;;7.70;99.90;;;;;;4932266;29;20212;-70
2022/09/20 00:57:13;;;;;;;1.70;1.55;;;7.70;99.90;;;;;;4943760;28;20197;-68
2022/09/20 00:59:44;;;;;;;1.33;1.13;;;7.80;99.90;;;;;;4939155;29;20203;-71
2022/09/20 01:02:16;;;;;;;2.80;1.40;;;7.70;99.90;;;;;;4935555;29;20193;-70
2022/09/20 01:04:46;;;;;;;2.00;1.20;;;7.70;99.90;;;;;;4943072;29;20220;-70
2022/09/20 01:07:21;;;;;;;3.55;1.70;;;7.60;99.90;;;;;;4927457;29;20208;-71
2022/09/20 01:09:49;;;;;;;4.90;1.60;;;7.70;99.90;;;;;;4938620;29;20569;-71
2022/09/20 01:12:21;;;;;;;2.03;1.55;;;7.70;99.90;;;;;;4942644;29;20588;-71
2022/09/20 01:14:52;;;;;;;3.13;1.60;;;7.70;99.90;;;;;;4943314;29;20224;-70
2022/09/20 01:17:25;;;;;;;1.55;1.17;;;7.70;99.90;;;;;;4947139;29;20674;-70
2022/09/20 01:20:08;;;;;;;3.85;1.98;;;7.70;99.90;;;;;;4949232;29;20193;-70
2022/09/20 01:22:50;;;;;;;2.15;1.33;;;7.70;99.90;;;;;;4942598;29;20208;-70
2022/09/20 01:25:28;;;;;;;2.38;1.30;;;7.60;99.90;;;;;;4946742;29;20667;-70
2022/09/20 01:27:58;;;;;;;4.80;1.65;;;7.60;99.90;;;;;;4946569;29;20252;-71
2022/09/20 01:30:35;;;;;;;2.55;1.75;;;7.60;99.90;;;;;;4941498;29;20306;-71
2022/09/20 01:33:12;;;;;;;3.75;1.98;;;7.60;99.90;;;;;;4926483;29;20751;-71
2022/09/20 01:35:44;;;;;;;2.50;1.52;;;7.60;99.90;;;;;;4937950;29;20216;-71
2022/09/20 01:38:26;;;;;;;1.38;1.20;;;7.60;99.90;;;;;;4944962;29;20197;-71
2022/09/20 01:41:03;;;;;;;2.60;1.80;;;7.60;99.90;;;;;;4944973;29;20192;-71
2022/09/20 01:43:36;;;;;;;4.03;1.80;;;7.70;99.90;;;;;;4941618;29;20199;-70
2022/09/20 01:46:16;;;;;;;2.20;1.77;;;7.70;99.90;;;;;;4931668;29;20206;-70
2022/09/20 01:48:44;;;;;;;2.03;1.42;;;7.70;99.90;;;;;;4940612;29;20192;-70
2022/09/20 01:51:43;;;;;;;2.47;1.42;;;7.60;99.90;;;;;;4938766;29;20660;-70
2022/09/20 01:54:49;;;;;;;2.88;1.55;;;7.60;99.90;;;;;;4936237;29;20707;-70
2022/09/20 01:58:02;;;;;;;2.00;1.40;;;7.50;99.90;;;;;;4937524;29;20667;-69
2022/09/20 02:00:45;;;;;;;2.55;1.80;;;7.50;99.90;;;;;;4932097;29;20200;-69
2022/09/20 02:03:41;;;;;;;1.63;1.48;;;7.50;99.90;;;;;;4934703;29;20200;-69
2022/09/20 02:06:41;;;;;;;1.80;1.27;;;7.50;99.90;;;;;;4926957;29;20275;-69
2022/09/20 02:09:58;;;;;;;2.22;1.60;;;7.50;99.90;;;;;;4933335;29;20247;-71
2022/09/20 02:12:44;;;;;;;2.38;1.70;;;7.50;99.90;;;;;;4890501;29;20302;-70
2022/09/20 02:15:29;;;;;;;2.08;1.70;;;7.60;99.90;;;;;;4934821;29;20525;-70
2022/09/20 02:18:09;;;;;;;3.55;1.40;;;7.50;99.90;;;;;;4932993;29;20355;-70
2022/09/20 02:20:45;;;;;;;6.18;1.98;;;7.60;99.90;;;;;;4935983;29;20277;-70
2022/09/20 02:23:27;;;;;;;1.88;1.42;;;7.60;99.90;;;;;;4926481;29;20243;-70
2022/09/20 02:26:17;;;;;;;1.98;1.30;;;7.70;99.90;;;;;;4952454;29;20689;-70
2022/09/20 02:28:54;;;;;;;3.75;1.60;;;7.70;99.90;;;;;;4942731;28;20295;-72
2022/09/20 02:31:43;;;;;;;3.10;1.30;;;7.70;99.90;;;;;;4930363;29;20228;-70
2022/09/20 02:34:54;;;;;;;2.17;1.35;;;7.70;99.90;;;;;;4930906;29;20264;-71
2022/09/20 02:37:42;;;;;;;3.42;2.03;;;7.80;99.90;;;;;;4900978;29;20212;-69
2022/09/20 02:40:24;;;;;;;1.75;1.23;;;7.90;99.90;;;;;;4929261;29;20223;-68
2022/09/20 02:43:02;;;;;;;4.20;1.40;;;7.90;99.90;;;;;;4942522;29;20197;-68
2022/09/20 02:45:36;;;;;;;3.13;1.80;;;7.90;99.90;;;;;;4938119;29;20216;-70
2022/09/20 02:48:05;;;;;;;1.75;1.40;;;8.00;99.90;;;;;;4940380;29;20195;-70
2022/09/20 02:50:45;;;;;;;1.58;1.48;;;8.00;99.90;;;;;;4935285;29;20235;-71
2022/09/20 02:53:31;;;;;;;4.90;1.95;;;8.00;99.90;;;;;;4947411;29;20443;-71
2022/09/20 02:56:09;;;;;;;2.30;1.40;;;8.00;99.90;;;;;;4949461;28;20522;-70
2022/09/20 02:58:46;;;;;;;7.43;1.30;;;7.90;99.90;;;;;;4936386;29;20255;-70
2022/09/20 03:01:25;;;;;;;1.20;1.00;;;7.90;99.90;;;;;;4941670;28;20227;-71
2022/09/20 03:04:08;;;;;;;1.73;1.33;;;7.90;99.90;;;;;;4939844;29;20212;-70
2022/09/20 03:06:43;;;;;;;2.47;2.05;;;7.90;99.90;;;;;;4932842;29;20248;-72
2022/09/20 03:09:19;;;;;;;1.15;0.80;;;7.90;99.90;;;;;;4935994;29;20200;-69
2022/09/20 03:11:57;;;;;;;3.75;1.30;;;7.90;99.90;;;;;;4927188;29;20224;-69
2022/09/20 03:14:31;;;;;;;2.35;1.25;;;7.90;99.90;;;;;;4934727;29;20623;-71
2022/09/20 03:17:14;;;;;;;2.25;1.27;;;8.00;99.90;;;;;;4942705;28;20232;-70
2022/09/20 03:20:03;;;;;;;2.60;1.40;;;8.00;99.90;;;;;;4942097;28;20227;-69
2022/09/20 03:22:46;;;;;;;1.83;1.63;;;8.00;99.90;;;;;;4929615;29;20634;-70
2022/09/20 03:25:35;;;;;;;1.77;1.40;;;8.10;99.90;;;;;;4923496;29;20225;-69
2022/09/20 03:28:16;;;;;;;2.05;1.02;;;8.10;99.90;;;;;;4939654;29;20560;-69
2022/09/20 03:30:59;;;;;;;2.80;1.83;;;8.10;99.90;;;;;;4918923;29;20205;-69
2022/09/20 03:33:40;;;;;;;1.50;1.27;;;8.30;99.90;;;;;;4929801;29;20608;-69
2022/09/20 03:36:25;;;;;;;3.08;1.40;;;8.30;99.90;;;;;;4931635;29;20196;-71
2022/09/20 03:39:11;;;;;;;2.42;1.65;;;8.30;99.90;;;;;;4924615;29;20270;-70
2022/09/20 03:41:52;;;;;;;9.25;1.10;;;8.40;99.90;;;;;;4939789;29;20695;-70
2022/09/20 03:45:06;;;;;;;2.28;1.65;;;8.50;99.90;;;;;;4932331;29;20762;-71
2022/09/20 03:48:05;;;;;;;2.80;1.95;;;8.50;99.90;;;;;;4876598;29;20254;-70
2022/09/20 03:50:47;;;;;;;5.85;1.98;;;8.50;99.90;;;;;;4941422;29;20209;-71
2022/09/20 03:54:07;;;;;;;1.80;1.27;;;8.50;99.90;;;;;;4935998;29;20196;-71
2022/09/20 03:56:59;;;;;;;1.52;1.20;;;8.60;99.90;;;;;;4909083;29;20220;-70
2022/09/20 04:00:00;;;;;;;1.85;1.40;;;8.70;99.90;;;;;;4934162;28;20220;-70
2022/09/20 04:02:43;;;;;;;2.08;1.77;;;8.70;99.90;;;;;;4932877;29;20215;-72
2022/09/20 04:05:16;;;;;;;5.18;1.27;;;8.60;99.90;;;;;;4933834;29;20236;-69
2022/09/20 04:07:59;;;;;;;2.22;1.88;;;8.70;99.90;;;;;;4927109;29;20215;-70
2022/09/20 04:10:36;;;;;;;3.00;2.05;;;8.70;99.90;;;;;;4927140;29;20205;-69
2022/09/20 04:13:19;;;;;;;3.95;2.10;;;8.70;99.90;;;;;;4930388;29;20245;-70
2022/09/20 04:16:02;;;;;;;3.83;1.37;;;8.70;99.90;;;;;;4925329;29;20239;-72
2022/09/20 04:18:36;;;;;;;1.70;1.42;;;8.70;99.90;;;;;;4942330;29;20447;-70
2022/09/20 04:21:11;;;;;;;1.83;1.63;;;8.70;99.90;;;;;;4935497;29;20208;-70
2022/09/20 04:23:48;;;;;;;5.57;1.80;;;8.70;99.90;;;;;;4931107;29;20222;-71
2022/09/20 04:26:22;;;;;;;6.60;2.30;;;8.70;99.90;;;;;;4932827;29;20196;-70
2022/09/20 04:29:00;;;;;;;2.80;2.10;;;8.60;99.90;;;;;;4930354;29;20436;-70
2022/09/20 04:31:38;;;;;;;2.65;2.17;;;8.60;99.90;;;;;;4945473;28;20218;-70
2022/09/20 04:34:15;;;;;;;2.13;1.75;;;8.60;99.90;;;;;;4927734;29;20304;-69
2022/09/20 04:37:18;;;;;;;2.17;1.70;;;8.60;99.90;;;;;;4929512;29;20193;-69
2022/09/20 04:39:55;;;;;;;10.48;1.95;;;8.70;99.90;;;;;;4949994;29;20283;-70
2022/09/20 04:43:05;;;;;;;2.55;2.03;;;8.70;99.90;;;;;;4938111;29;20200;-70
2022/09/20 04:46:10;;;;;;;3.15;1.40;;;8.60;99.90;;;;;;4933799;29;20263;-69
2022/09/20 04:49:19;;;;;;;2.22;1.33;;;8.70;99.90;;;;;;4938400;29;20193;-71
2022/09/20 04:52:27;;;;;;;1.83;1.70;;;8.60;99.90;;;;;;4945624;29;20224;-70
2022/09/20 04:55:38;;;;;;;2.90;2.47;;;8.60;99.90;;;;;;4932359;29;20248;-70
2022/09/20 04:58:49;;;;;;;2.03;1.80;;;8.70;99.90;;;;;;4919754;29;20200;-70
2022/09/20 05:02:03;;;;;;;3.10;2.20;;;8.60;99.90;;;;;;4931994;29;20744;-70
2022/09/20 05:05:07;;;;;;;2.15;1.92;;;8.70;99.90;;;;;;4936133;29;20221;-69
2022/09/20 05:08:14;;;;;;;2.15;1.95;;;8.70;99.90;;;;;;4907463;29;20216;-70
2022/09/20 05:11:24;;;;;;;1.95;1.30;;;8.70;99.90;;;;;;4939434;29;20292;-70
2022/09/20 05:14:11;;;;;;;2.33;1.92;;;8.70;99.90;;;;;;4916106;29;20193;-69
2022/09/20 05:17:06;;;;;;;2.30;1.85;;;8.70;99.90;;;;;;4944507;28;20680;-71
2022/09/20 05:19:45;;;;;;;3.03;2.50;;;8.80;99.90;;;;;;4942229;29;20231;-71
2022/09/20 05:22:53;;;;;;;3.55;1.20;;;8.80;99.90;;;;;;4936573;29;20582;-71
2022/09/20 05:25:43;;;;;;;2.55;2.10;;;8.90;99.90;;;;;;4945791;29;20239;-71
2022/09/20 05:28:23;;;;;;;8.27;2.58;;;8.90;99.90;;;;;;4920162;29;20616;-72
2022/09/20 05:30:57;;;;;;;3.25;1.95;;;9.00;99.90;;;;;;4944934;29;20200;-71
2022/09/20 05:33:32;;;;;;;1.75;1.60;;;9.00;99.90;;;;;;4930075;29;20787;-71
2022/09/20 05:36:08;;;;;;;5.90;2.63;;;9.20;99.90;;;;;;4941132;29;20271;-71
2022/09/20 05:38:47;;;;;;;3.00;1.73;;;9.30;99.90;;;;;;4943503;29;20197;-72
2022/09/20 05:41:30;;;;;;;4.63;2.10;;;9.40;99.90;;;;;;4945930;29;20444;-70
2022/09/20 05:44:08;;;;;;;1.33;1.20;;;9.50;99.90;;;;;;4951196;28;20962;-69
2022/09/20 05:46:48;;;;;;;2.17;1.43;;;9.50;99.90;;;;;;4937015;29;20212;-70
2022/09/20 05:49:33;;;;;;;2.60;1.70;;;9.50;99.90;;;;;;4940932;29;20414;-70
2022/09/20 05:52:14;;;;;;;1.90;1.53;;;9.50;99.90;;;;;;4931111;29;20446;-71
2022/09/20 05:55:16;;;;;;;2.27;1.80;;;9.70;99.90;;;;;;4935235;29;20483;-71
2022/09/20 05:58:07;;;;;;;5.00;1.63;;;9.90;99.90;;;;;;4932990;29;20503;-69
2022/09/20 06:00:45;;;;;;;2.70;1.57;;;10.00;99.90;;;;;;4932618;29;20515;-69
2022/09/20 06:03:22;;;;;;;2.10;1.90;;;10.10;99.90;;;;;;4938392;29;20442;-69
2022/09/20 06:05:59;;;;;;;5.00;2.60;;;10.10;99.90;;;;;;4929416;29;20864;-71
2022/09/20 06:09:02;;;;;;;3.87;1.70;;;10.20;99.90;;;;;;4941099;29;20429;-71
2022/09/20 06:12:04;;;;;;;4.03;1.90;;;10.10;99.90;;;;;;4934136;29;20502;-71
2022/09/20 06:14:43;;;;;;;5.70;1.60;;;10.10;99.90;;;;;;4932798;29;20435;-71
2022/09/20 06:17:25;;;;;;;1.80;1.70;;;10.10;99.90;;;;;;4935134;29;20988;-71
2022/09/20 06:20:14;;;;;;;3.10;1.63;;;10.10;99.90;;;;;;4947377;29;20986;-70
2022/09/20 06:22:46;;;;;;;4.73;1.70;;;10.00;99.90;;;;;;4933469;29;20430;-70
2022/09/20 06:25:21;;;;;;;2.10;1.37;;;10.10;99.90;;;;;;4936322;29;20842;-70
2022/09/20 06:27:53;;;;;;;4.27;1.37;;;10.10;99.90;;;;;;4933670;29;20415;-71
2022/09/20 06:30:26;;;;;;;2.17;1.63;;;10.10;99.90;;;;;;4940407;29;20435;-71
2022/09/20 06:33:01;;;;;;;1.97;1.33;;;10.10;99.90;;;;;;4944319;29;20447;-71
2022/09/20 06:35:37;;;;;;;3.40;1.80;;;10.10;99.90;;;;;;4939393;29;20471;-72
2022/09/20 06:44:05;;;;;;;1.77;1.43;;;10.10;99.90;;;;;;4925858;28;20887;-70
2022/09/20 06:46:36;;;;;;;1.67;1.30;;;10.00;99.90;;;;;;4940924;29;20927;-69
2022/09/20 06:49:08;;;;;;;3.27;1.63;;;10.00;99.90;;;;;;4942249;29;20449;-72
2022/09/20 06:51:38;;;;;;;1.83;1.33;;;10.10;99.90;;;;;;4939910;29;20860;-70
2022/09/20 06:54:14;;;;;;;1.53;1.30;;;10.10;99.90;;;;;;4926668;29;20504;-71
2022/09/20 06:56:45;;;;;;;2.73;1.60;;;10.20;99.90;;;;;;4924545;29;20406;-70
2022/09/20 06:59:14;;;;;;;3.00;1.37;;;10.20;99.90;;;;;;4936127;29;20813;-71
2022/09/20 07:01:43;;;;;;;3.60;1.90;;;10.20;99.90;;;;;;4936751;29;20418;-72
2022/09/20 07:04:13;;;;;;;2.87;1.70;;;10.10;99.90;;;;;;4933658;29;20461;-70
2022/09/20 07:06:42;;;;;;;5.63;1.90;;;10.00;99.90;;;;;;4941246;29;20429;-70
2022/09/20 07:09:11;;;;;;;1.87;1.50;;;10.00;99.90;;;;;;4940642;29;20816;-71
2022/09/20 07:11:41;;;;;;;2.53;1.53;;;9.90;99.90;;;;;;4934871;29;20435;-71
2022/09/20 07:14:10;;;;;;;3.13;2.07;;;9.90;99.90;;;;;;4938038;29;20460;-71
2022/09/20 07:16:39;;;;;;;2.03;1.67;;;9.90;99.90;;;;;;4939202;29;20453;-70
2022/09/20 07:19:08;;;;;;;3.60;1.80;;;9.90;99.90;;;;;;4924879;29;20196;-70
2022/09/20 07:21:38;;;;;;;6.07;2.50;;;9.90;99.90;;;;;;4934576;29;20936;-72
2022/09/20 07:24:06;;;;;;;3.47;2.60;;;9.90;99.90;;;;;;4940689;29;20478;-70
2022/09/20 07:26:35;;;;;;;2.20;1.80;;;10.10;99.90;;;;;;4934096;29;20983;-71
2022/09/20 07:29:05;;;;;;;2.30;2.10;;;10.30;99.90;;;;;;4935588;29;20475;-70
2022/09/20 07:31:34;;;;;;;3.13;2.00;;;10.50;99.90;;;;;;4947915;29;20498;-69
2022/09/20 07:34:05;;;;;;;3.70;1.90;;;10.60;99.90;;;;;;4935022;29;20439;-70
2022/09/20 07:36:34;;;;;;;8.27;2.77;;;10.70;99.90;;;;;;4934067;29;20460;-72
2022/09/20 07:39:04;;;;;;;3.57;2.30;;;10.70;99.90;;;;;;4938049;29;20435;-70
2022/09/20 07:41:33;;;;;;;2.57;1.87;;;10.90;99.90;;;;;;4934494;29;20459;-70
2022/09/20 07:44:19;;;;;;;3.80;2.60;;;11.00;99.90;;;;;;4943775;29;20856;-69
2022/09/20 07:46:48;;;;;;;2.60;1.93;;;11.10;99.90;;;;;;4940810;29;20696;-72
2022/09/20 07:49:17;;;;;;;4.17;2.60;;;11.20;99.90;;;;;;4935730;29;20418;-72
2022/09/20 07:51:46;;;;;;;3.10;1.90;;;11.30;99.90;;;;;;4934007;29;20745;-70
2022/09/20 07:54:17;;;;;;;2.50;1.93;;;11.20;99.90;;;;;;4935438;29;20449;-70
2022/09/20 07:56:46;;;;;;;6.90;2.40;;;11.30;99.90;;;;;;4935451;29;20444;-70
2022/09/20 07:59:15;;;;;;;4.53;2.30;;;11.30;99.90;;;;;;4934763;29;20423;-71
2022/09/20 08:01:44;;;;;;;2.90;1.57;;;11.40;99.90;;;;;;4948652;29;20442;-70
2022/09/20 08:04:13;;;;;;;4.23;2.40;;;11.50;99.90;;;;;;4936144;29;20480;-70
2022/09/20 08:06:43;;;;;;;4.30;2.27;;;11.60;1.00;;;;;;4934816;29;20790;-69
2022/09/20 08:09:13;;;;;;;2.30;1.53;;;11.70;1.00;;;;;;4939456;29;20433;-70
2022/09/20 08:11:44;;;;;;;4.60;1.77;;;11.80;1.00;;;;;;4939121;29;20771;-70
2022/09/20 08:14:15;;;;;;;3.87;2.07;;;12.00;1.00;;;;;;4934860;29;20466;-70
2022/09/20 08:16:46;;;;;;;3.27;1.97;;;12.20;1.00;;;;;;4933993;29;20887;-71
2022/09/20 08:19:17;;;;;;;2.10;1.47;;;12.10;99.90;;;;;;4930348;29;20938;-69
2022/09/20 08:21:45;;;;;;;2.37;2.13;;;12.20;99.90;;;;;;4934657;29;20440;-72
2022/09/20 08:24:15;;;;;;;2.20;1.77;;;12.30;99.90;;;;;;4937005;29;20546;-71
2022/09/20 08:26:45;;;;;;;2.50;1.50;;;12.40;99.90;;;;;;4940003;29;20423;-72
2022/09/20 08:29:14;;;;;;;2.70;1.67;;;12.50;99.90;;;;;;4939411;29;20998;-70
2022/09/20 08:31:43;;;;;;;1.73;1.10;;;12.50;99.90;;;;;;4936957;29;20512;-70
2022/09/20 08:34:15;;;;;;;2.03;1.40;;;12.50;99.90;;;;;;4937596;29;20510;-72
2022/09/20 08:36:45;;;;;;;3.17;2.23;;;12.60;99.90;;;;;;4936902;29;20789;-72
2022/09/20 08:39:15;;;;;;;3.43;1.60;;;12.70;99.90;;;;;;4937364;29;20450;-72
2022/09/20 08:42:13;;;;;;;3.53;1.70;;;12.70;99.90;;;;;;4917771;29;20997;-70
2022/09/20 08:44:51;;;;;;;3.80;1.40;;;12.60;99.90;;;;;;4943751;29;20455;-72
2022/09/20 08:47:31;;;;;;;3.67;1.83;;;12.70;99.90;;;;;;4940648;29;20398;-71
2022/09/20 08:50:01;;;;;;;2.40;1.73;;;13.00;99.90;;;;;;4935661;29;20885;-71
2022/09/20 08:52:39;;;;;;;9.50;3.10;;;13.00;99.90;;;;;;4934774;29;20530;-71
2022/09/20 08:55:16;;;;;;;5.57;1.57;;;13.20;99.90;;;;;;4933866;29;20430;-71
2022/09/20 08:57:49;;;;;;;1.93;1.40;;;13.20;99.90;;;;;;4932593;29;20452;-72
2022/09/20 09:00:19;;;;;;;7.90;1.60;;;13.30;99.90;;;;;;4938341;29;20440;-71
2022/09/20 09:02:50;;;;;;;1.70;1.30;;;13.40;99.90;;;;;;4963159;23;20495;-73
2022/09/20 09:05:34;;;;;;;2.00;1.30;;;13.40;99.90;;;;;;4955258;29;20866;-73
2022/09/20 09:08:07;;;;;;;4.03;1.53;;;13.50;99.90;;;;;;4942909;29;20483;-72
2022/09/20 09:10:38;;;;;;;7.27;1.90;;;13.50;99.90;;;;;;4941609;29;20531;-72
2022/09/20 09:13:21;;;;;;;5.73;1.80;;;13.50;99.90;;;;;;4934770;29;20855;-72
2022/09/20 09:16:06;;;;;;;9.50;1.80;;;13.80;99.90;;;;;;4926217;29;20428;-69
2022/09/20 09:18:38;;;;;;;5.20;1.57;;;14.00;99.90;;;;;;4915299;29;20483;-73
2022/09/20 09:21:09;;;;;;;3.10;1.10;;;14.00;99.90;;;;;;4916454;29;20435;-72
2022/09/20 09:23:41;;;;;;;2.17;1.20;;;14.20;99.90;;;;;;4919996;29;21010;-73
2022/09/20 09:26:20;;;;;;;8.00;1.70;;;14.40;99.90;;;;;;4917135;29;20497;-73
2022/09/20 09:29:09;;;;;;;3.13;1.27;;;14.70;99.90;;;;;;4921252;29;20449;-73
2022/09/20 09:31:38;;;;;;;3.43;1.90;;;14.80;99.90;;;;;;4916592;29;20821;-74
2022/09/20 09:34:24;;;;;;;2.70;1.93;;;14.60;99.90;;;;;;4919342;29;20450;-75
2022/09/20 09:36:54;;;;;;;9.13;1.50;;;14.80;99.90;;;;;;4923010;29;20456;-72
2022/09/20 09:39:29;;;;;;;6.33;2.10;;;14.90;99.90;;;;;;4921499;29;20917;-72
2022/09/20 09:41:59;;;;;;;3.10;2.17;;;15.00;99.90;;;;;;4915714;29;20440;-73
2022/09/20 09:44:32;;;;;;;4.60;2.50;;;14.70;99.90;;;;;;4918185;29;20424;-72
2022/09/20 09:47:02;;;;;;;2.50;1.40;;;14.60;99.90;;;;;;4920318;29;20447;-74
2022/09/20 09:49:34;;;;;;;5.37;1.87;;;14.60;99.90;;;;;;4923410;29;20467;-73
2022/09/20 09:52:13;;;;;;;4.07;1.50;;;14.70;99.90;;;;;;4913641;29;20416;-72
2022/09/20 09:54:47;;;;;;;2.40;1.70;;;15.00;99.90;;;;;;4917067;29;20455;-71
2022/09/20 09:57:34;;;;;;;1.50;1.37;;;15.30;96.00;;;;;;4921455;29;20435;-76
2022/09/20 10:00:14;;;;;;;3.00;1.10;;;15.60;91.50;;;;;;4912457;29;20436;-72
2022/09/20 10:03:27;;;;;;;2.97;1.33;;;16.10;82.50;;;;;;4918663;29;20488;-72
2022/09/20 10:06:18;;;;;;;4.23;1.50;;;16.40;68.70;;;;;;4926776;29;20418;-72
2022/09/20 10:09:09;;;;;;;1.90;1.70;;;16.60;62.50;;;;;;4920802;29;20445;-73
2022/09/20 10:11:55;;;;;;;2.00;1.40;;;16.70;60.30;;;;;;4918642;29;20449;-73
2022/09/20 10:14:36;;;;;;;4.60;1.40;;;16.70;55.60;;;;;;4920577;29;20476;-72
2022/09/20 10:17:30;;;;;;;3.13;1.77;;;16.40;54.20;;;;;;4916732;29;20979;-72
2022/09/20 10:20:15;;;;;;;2.23;1.70;;;16.20;53.30;;;;;;4912777;29;20445;-73
2022/09/20 10:22:53;;;;;;;2.97;2.20;;;16.10;54.60;;;;;;4914378;29;20413;-73
2022/09/20 10:25:50;;;;;;;2.80;2.10;;;15.90;55.30;;;;;;4913769;29;20441;-74
2022/09/20 10:28:47;;;;;;;2.13;1.60;;;15.80;55.20;;;;;;4912608;29;20448;-73
2022/09/20 10:31:32;;;;;;;3.20;2.40;;;16.00;54.90;;;;;;4902266;29;20446;-74
2022/09/20 10:34:18;;;;;;;5.00;2.67;;;15.90;50.20;;;;;;4911710;28;20494;-74
2022/09/20 10:36:52;;;;;;;5.20;2.37;;;15.80;51.90;;;;;;4917596;29;20479;-74
2022/09/20 10:39:27;;;;;;;7.07;2.70;;;15.40;52.40;;;;;;4912892;29;20507;-73
2022/09/20 10:45:04;;;;;;;3.00;2.43;;;14.60;58.90;;;;;;4920181;29;20424;-73
2022/09/20 10:47:37;;;;;;;3.77;2.20;;;14.60;71.80;;;;;;4916751;29;20812;-75
2022/09/20 10:50:27;;;;;;;4.70;2.73;;;14.50;75.00;;;;;;4917494;29;20464;-74
2022/09/20 10:53:08;;;;;;;4.70;2.50;;;14.40;78.50;;;;;;4921602;29;20927;-72
2022/09/20 10:55:46;;;;;;;4.80;2.17;;;14.30;82.20;;;;;;4922907;29;20542;-73
2022/09/20 10:58:45;;;;;;;4.13;2.57;;;14.40;78.50;;;;;;4913953;29;20467;-71
2022/09/20 11:01:23;;;;;;;5.60;2.60;;;14.50;74.00;;;;;;4909567;29;20458;-71
2022/09/20 11:04:07;;;;;;;4.67;2.50;;;14.30;71.80;;;;;;4918934;29;20423;-69
2022/09/20 11:06:49;;;;;;;8.83;3.50;;;13.60;99.90;;;;;;4915026;29;20480;-70
2022/09/20 11:09:23;;;;;;;1.63;0.90;;;12.70;99.90;;;;;;4910499;29;20447;-70
2022/09/20 11:11:57;;;;;;;2.10;1.00;;;11.80;99.90;;;;;;4919762;29;20492;-69
2022/09/20 11:14:33;;;;;;;3.50;1.33;;;11.30;1.00;;;;;;4911750;29;20482;-70
2022/09/20 11:17:08;;;;;;;1.40;1.00;;;11.20;99.90;;;;;;4917414;29;20464;-70
2022/09/20 11:19:47;;;;;;;1.87;1.20;;;11.00;1.00;;;;;;4916963;29;20422;-72
2022/09/20 11:22:21;;;;;;;2.00;1.30;;;10.90;99.90;;;;;;4915462;29;20456;-69
2022/09/20 11:24:53;;;;;;;2.07;0.90;;;10.80;99.90;;;;;;4917917;29;20429;-72
2022/09/20 11:27:25;;;;;;;1.77;0.93;;;10.70;99.90;;;;;;4918511;29;20479;-71
2022/09/20 11:30:01;;;;;;;3.93;1.53;;;10.70;99.90;;;;;;4927712;29;20403;-72
2022/09/20 11:32:35;;;;;;;1.97;1.07;;;10.90;1.00;;;;;;4914065;29;20981;-72
2022/09/20 11:35:14;;;;;;;2.80;1.43;;;10.90;30.40;;;;;;4912332;29;20484;-71
2022/09/20 11:37:49;;;;;;;1.87;1.23;;;11.00;99.90;;;;;;4916320;29;20469;-71
2022/09/20 11:40:24;;;;;;;1.70;1.07;;;11.10;1.00;;;;;;4920880;29;20451;-71
2022/09/20 11:42:57;;;;;;;3.37;1.27;;;11.20;99.90;;;;;;4925844;29;20411;-71
2022/09/20 11:45:27;;;;;;;3.10;1.60;;;11.40;99.90;;;;;;4933046;29;20415;-70
2022/09/20 11:48:01;;;;;;;2.53;1.50;;;11.50;1.00;;;;;;4939727;29;20466;-71
2022/09/20 11:50:55;;;;;;;2.50;1.87;;;11.60;99.90;;;;;;4925858;29;20412;-71
2022/09/20 11:53:46;;;;;;;3.43;1.87;;;11.80;99.90;;;;;;4927732;29;20498;-71
2022/09/20 11:56:20;;;;;;;2.10;1.43;;;12.00;99.90;;;;;;4933370;29;20493;-71
2022/09/20 11:58:50;;;;;;;4.67;1.50;;;12.20;53.40;;;;;;4942032;29;20427;-72
2022/09/20 12:01:28;;;;;;;2.70;1.70;;;12.50;1.00;;;;;;4938938;29;20444;-72
2022/09/20 12:04:00;;;;;;;3.37;2.20;;;12.70;99.90;;;;;;4932706;29;20418;-70
2022/09/20 12:06:58;;;;;;;3.70;2.50;;;13.10;1.00;;;;;;4924087;29;20516;-71
2022/09/20 12:09:37;;;;;;;7.20;3.17;;;13.50;1.00;;;;;;4918380;29;20416;-72
2022/09/20 12:12:23;;;;;;;4.93;2.73;;;13.70;99.90;;;;;;4929010;29;20449;-72
2022/09/20 12:14:56;;;;;;;3.70;3.20;;;14.00;99.90;;;;;;4916762;29;20462;-72
2022/09/20 12:18:02;;;;;;;5.17;3.07;;;14.00;99.90;;;;;;4920911;29;20459;-73
2022/09/20 12:21:06;;;;;;;4.50;3.57;;;14.20;99.90;;;;;;4915563;29;20424;-71
2022/09/20 12:23:45;;;;;;;3.50;2.30;;;14.30;99.90;;;;;;4915278;29;20452;-73
2022/09/20 12:26:37;;;;;;;4.47;2.90;;;13.90;99.90;;;;;;4913907;29;20469;-70
2022/09/20 12:29:54;;;;;;;3.00;2.70;;;13.90;99.90;;;;;;4920287;29;20905;-72
2022/09/20 12:32:44;;;;;;;3.17;2.80;;;14.00;99.90;;;;;;4913895;29;20798;-72
2022/09/20 12:35:55;;;;;;;14.93;3.27;;;14.10;99.90;;;;;;4911822;29;20465;-71
2022/09/20 12:38:37;;;;;;;5.73;3.37;;;14.30;99.90;;;;;;4910059;29;20970;-71
2022/09/20 12:41:13;;;;;;;4.47;2.17;;;14.40;99.90;;;;;;4914774;29;20428;-71
2022/09/20 12:44:05;;;;;;;2.83;1.73;;;14.20;99.90;;;;;;4912990;29;20866;-71
2022/09/20 12:46:38;;;;;;;3.50;2.23;;;13.90;99.90;;;;;;4915781;29;20472;-71
2022/09/20 12:52:55;;;;;;;7.83;2.17;;;14.10;99.90;;;;;;4914679;29;20447;-71
2022/09/20 12:55:42;;;;;;;3.27;1.50;;;14.40;99.90;;;;;;4916228;29;20469;-71
2022/09/20 12:58:24;;;;;;;1.93;1.00;;;14.30;99.90;;;;;;4919921;29;20963;-73
2022/09/20 13:01:26;;;;;;;2.20;0.80;;;14.10;99.90;;;;;;4927994;29;20989;-72
2022/09/20 13:04:35;;;;;;;2.30;0.90;;;13.70;97.90;;;;;;4922627;29;20419;-73
2022/09/20 13:07:36;;;;;;;2.20;1.20;;;13.00;97.00;;;;;;4922463;29;20853;-72
2022/09/20 13:10:34;;;;;;;1.17;0.60;;;12.40;97.30;;;;;;4915752;29;20637;-71
2022/09/20 13:13:12;;;;;;;1.77;0.70;;;12.00;94.70;;;;;;4918356;29;20518;-72
2022/09/20 13:15:47;;;;;;;2.20;0.77;;;11.80;99.30;;;;;;4925455;29;20473;-72
2022/09/20 13:18:18;;;;;;;4.70;3.00;;;11.90;99.90;;;;;;4923097;29;20450;-72
2022/09/20 13:20:50;;;;;;;2.20;1.10;;;12.30;99.90;;;;;;4923611;29;20419;-71
2022/09/20 13:23:22;;;;;;;3.10;2.27;;;12.50;99.90;;;;;;4909546;29;20951;-71
2022/09/20 13:25:51;;;;;;;1.87;1.40;;;13.00;99.90;;;;;;4922179;29;20495;-72
2022/09/20 13:28:37;;;;;;;1.27;0.90;;;13.40;97.60;;;;;;4919004;29;20424;-71
2022/09/20 13:31:29;;;;;;;1.20;0.83;;;13.40;90.60;;;;;;4919517;29;20472;-71
2022/09/20 13:34:28;;;;;;;2.90;0.90;;;13.30;83.90;;;;;;4906415;29;20416;-72
2022/09/20 13:36:59;;;;;;;1.30;0.90;;;13.30;91.20;;;;;;4858997;29;20544;-71
2022/09/20 13:39:36;;;;;;;1.97;0.80;;;13.20;88.10;;;;;;4906943;29;20440;-73
2022/09/20 13:42:18;;;;;;;2.10;1.20;;;13.50;92.50;;;;;;4916995;29;20423;-73
2022/09/20 13:44:48;;;;;;;3.20;2.80;;;13.70;84.60;;;;;;4922650;29;20416;-71
2022/09/20 13:47:24;;;;;;;3.43;1.13;;;13.90;82.80;;;;;;4914699;29;20507;-72
2022/09/20 13:49:53;;;;;;;2.30;1.30;;;14.00;76.20;;;;;;4922089;29;20412;-72
2022/09/20 13:52:28;;;;;;;1.37;1.10;;;14.00;79.90;;;;;;4917891;29;20536;-71
2022/09/20 13:54:57;;;;;;;1.53;0.93;;;14.30;66.00;;;;;;4915181;29;20469;-72
2022/09/20 13:57:28;;;;;;;4.67;1.43;;;14.50;59.50;;;;;;4918356;29;20525;-72
2022/09/20 13:59:58;;;;;;;2.10;0.80;;;14.90;62.90;;;;;;4919615;29;20508;-72
2022/09/20 14:02:30;;;;;;;1.27;0.87;;;15.10;51.90;;;;;;4913921;29;20469;-71
2022/09/20 14:05:02;;;;;;;3.20;0.80;;;15.10;47.30;;;;;;4905192;29;20868;-72
2022/09/20 14:07:35;;;;;;;4.07;1.83;;;15.00;47.10;;;;;;4912949;29;20558;-71
2022/09/20 14:10:04;;;;;;;1.07;0.70;;;15.00;45.00;;;;;;4916019;29;20468;-72
2022/09/20 14:12:34;;;;;;;3.80;1.13;;;15.20;47.80;;;;;;4915017;29;20463;-71